Latest Weather Observations for Essendon Airport

IDV60901

Issued at 3:01 pm EST Thursday 21 September 2017 (issued every 10 minutes, with the page automatically refreshed every 10 minutes)

About weather observations | Map of Melbourne area stations | Latest observations for Melbourne area | Other Formats
Station Details ID: 086038 Name: ESSENDON AIRPORT Lat: -37.73 Lon: 144.91 Height: 78.4 m
Data from the previous 72 hours. | See also: Recent months at Essendon Airport
Date/Time
EST
Temp
°C
App
Temp
°C
Dew
Point
°C
Rel
Hum
%
Delta-T
°C
Wind Press
QNH
hPa
Press
MSL
hPa
Rain since
9am
mm
Dir  Spd
km/h
Gust
km/h
Spd
kts
Gust
kts
21/03:00pm 21.5 15.4 4.6 33 8.3 NNW 26 35 14 19 1007.6 1007.6 0.0
21/02:35pm 21.2 13.6 3.9 32 8.4 N 33 54 18 29 1007.3 1007.3 0.0
21/02:30pm 21.3 14.0 4.4 33 8.3 N 32 44 17 24 1007.4 1007.4 0.0
21/02:00pm 20.8 12.8 5.6 37 7.6 N 37 50 20 27 1007.8 1007.8 0.0
21/01:30pm 20.8 12.4 5.6 37 7.6 N 39 56 21 30 1008.2 1008.2 0.0
21/01:22pm 20.7 12.7 5.9 38 7.4 N 37 56 20 30 1008.3 1008.3 0.0
21/01:00pm 20.7 12.2 5.1 36 7.7 N 39 54 21 29 1008.8 1008.8 0.0
21/12:30pm 20.9 12.2 6.1 38 7.4 N 41 65 22 35 1009.0 1009.0 0.0
21/12:08pm 19.6 10.5 4.1 36 7.4 N 41 59 22 32 1009.4 1009.4 0.0
21/12:00pm 19.2 9.8 4.2 37 7.2 N 43 59 23 32 1009.6 1009.6 0.0
21/11:30am 17.2 10.7 4.9 44 5.9 N 28 43 15 23 1010.4 1010.5 0.0
21/11:00am 15.6 7.4 4.9 49 5.1 NNE 37 56 20 30 1010.4 1010.5 0.0
21/10:30am 14.8 8.4 5.1 52 4.6 N 28 48 15 26 1011.8 1011.9 0.0
21/10:27am 14.7 8.3 5.0 52 4.6 N 28 48 15 26 1011.8 1011.9 0.0
21/10:00am 14.2 9.1 4.2 51 4.6 N 20 26 11 14 1012.2 1012.3 0.0
21/09:30am 13.9 7.2 3.4 49 4.7 NNE 28 41 15 22 1011.6 1011.7 0.0
21/09:00am 13.1 8.0 4.3 55 4.0 NNE 20 28 11 15 1012.0 1012.1 0.0
21/08:30am 12.6 5.3 4.3 57 3.8 N 32 43 17 23 1013.1 1013.2 0.0
21/08:00am 12.1 3.8 4.3 59 3.5 N 37 56 20 30 1013.0 1013.1 0.0
21/07:56am 12.3 4.4 4.3 58 3.6 N 35 54 19 29 1012.8 1012.9 0.0
21/07:43am 12.1 6.3 4.3 59 3.5 N 24 39 13 21 1013.1 1013.2 0.0
21/07:30am 12.0 8.3 4.5 60 3.4 N 13 20 7 11 1013.6 1013.7 0.0
21/07:00am 12.3 6.9 4.3 58 3.6 NNE 22 32 12 17 1012.9 1013.0 0.0
21/06:30am 12.3 6.1 4.3 58 3.6 NNE 26 39 14 21 1012.6 1012.7 0.0
21/06:00am 12.5 5.2 4.5 58 3.7 NNE 32 39 17 21 1012.6 1012.7 0.0
21/05:30am 12.5 6.0 4.7 59 3.6 N 28 39 15 21 1012.8 1012.9 0.0
21/05:00am 12.1 6.3 4.6 60 3.4 NNE 24 37 13 20 1012.7 1012.8 0.0
21/04:30am 12.4 7.0 4.6 59 3.6 N 22 37 12 20 1012.5 1012.6 0.0
21/04:00am 12.2 6.9 5.1 62 3.3 NNE 22 32 12 17 1012.6 1012.7 0.0
21/03:30am 12.6 6.2 5.1 60 3.5 NNE 28 48 15 26 1012.2 1012.3 0.0
21/03:29am 12.5 6.1 5.0 60 3.5 NNE 28 48 15 26 1012.2 1012.3 0.0
21/03:00am 12.0 7.4 5.4 64 3.1 NNE 19 26 10 14 1012.8 1012.9 0.0
21/02:30am 11.8 6.2 5.4 65 3.0 N 24 41 13 22 1012.9 1013.0 0.0
21/02:00am 11.5 6.7 5.4 66 2.8 N 20 30 11 16 1013.3 1013.4 0.0
21/01:30am 11.3 6.5 5.4 67 2.7 N 20 26 11 14 1013.6 1013.7 0.0
21/01:00am 11.8 6.9 5.2 64 3.0 N 20 33 11 18 1014.0 1014.1 0.0
21/12:30am 11.8 7.5 5.4 65 3.0 N 17 24 9 13 1014.4 1014.5 0.0
21/12:00am 11.1 8.3 5.0 66 2.8 NE 9 11 5 6 1014.7 1014.8 0.0
 
Date/Time
EST
Temp
°C
App
Temp
°C
Dew
Point
°C
Rel
Hum
%
Delta-T
°C
Wind Press
QNH
hPa
Press
MSL
hPa
Rain since
9am
mm
Dir  Spd
km/h
Gust
km/h
Spd
kts
Gust
kts
20/11:30pm 11.9 7.2 5.1 63 3.1 N 19 28 10 15 1014.9 1015.0 0.0
20/11:00pm 13.4 7.0 5.1 57 3.9 N 28 41 15 22 1015.2 1015.2 0.0
20/10:30pm 13.6 7.5 5.0 56 4.0 NNW 26 39 14 21 1015.8 1015.8 0.0
20/10:00pm 14.2 9.4 4.8 53 4.4 N 19 35 10 19 1015.6 1015.6 0.0
20/09:30pm 14.3 7.1 4.9 53 4.4 NNE 32 44 17 24 1013.8 1013.9 0.0
20/09:00pm 14.7 7.4 4.7 51 4.7 N 32 46 17 25 1014.3 1014.4 0.0
20/08:30pm 14.4 8.0 5.2 54 4.3 N 28 37 15 20 1015.4 1015.4 0.0
20/08:00pm 14.6 8.6 5.4 54 4.4 N 26 37 14 20 1015.5 1015.5 0.0
20/07:30pm 14.8 9.2 5.3 53 4.5 N 24 32 13 17 1015.4 1015.4 0.0
20/07:00pm 14.8 9.7 5.9 55 4.3 N 22 30 12 16 1015.4 1015.4 0.0
20/06:30pm 14.9 10.4 6.0 55 4.3 N 19 26 10 14 1015.6 1015.6 0.0
20/06:00pm 15.5 10.3 5.7 52 4.7 N 22 33 12 18 1015.5 1015.5 0.0
20/05:30pm 16.1 9.4 5.4 49 5.1 N 30 43 16 23 1014.7 1014.8 0.0
20/05:00pm 16.8 10.5 5.7 48 5.4 N 28 41 15 22 1015.0 1015.1 0.0
20/04:30pm 17.1 11.0 6.6 50 5.2 N 28 43 15 23 1014.9 1015.0 0.0
20/04:00pm 17.4 10.9 6.3 48 5.5 N 30 39 16 21 1015.2 1015.2 0.0
20/03:30pm 17.8 11.6 6.3 47 5.7 NNE 28 39 15 21 1015.4 1015.4 0.0
20/03:00pm 18.2 12.5 6.7 47 5.7 N 26 39 14 21 1015.9 1015.9 0.0
20/02:30pm 18.2 12.4 6.4 46 5.9 N 26 43 14 23 1016.1 1016.1 0.0
20/02:00pm 17.8 12.4 6.3 47 5.7 N 24 33 13 18 1016.7 1016.7 0.0
20/01:30pm 17.5 11.7 6.1 47 5.6 NNE 26 37 14 20 1017.0 1017.0 0.0
20/01:00pm 17.3 11.9 6.2 48 5.4 N 24 32 13 17 1017.8 1017.8 0.0
20/12:30pm 16.9 11.6 5.2 46 5.6 N 22 30 12 16 1018.6 1018.6 0.0
20/12:00pm 16.9 12.0 7.0 52 4.9 N 22 33 12 18 1019.2 1019.2 0.0
20/11:30am 15.6 9.7 5.8 52 4.7 N 26 37 14 20 1019.4 1019.4 0.0
20/11:00am 14.8 9.0 6.1 56 4.2 N 26 39 14 21 1019.5 1019.5 0.0
20/10:30am 14.0 8.3 6.8 62 3.5 N 26 35 14 19 1019.8 1019.8 0.0
20/10:00am 13.6 8.2 6.2 61 3.5 N 24 32 13 17 1020.6 1020.6 0.0
20/09:30am 12.6 6.6 5.3 61 3.4 N 26 35 14 19 1020.5 1020.5 0.0
20/09:00am 12.1 6.1 5.3 63 3.1 N 26 35 14 19 1021.0 1021.1 0.0
20/08:30am 11.2 5.5 5.1 66 2.8 N 24 32 13 17 1020.9 1020.9 0.0
20/08:00am 9.7 4.9 4.7 71 2.2 N 19 26 10 14 1021.0 1021.1 0.0
20/07:30am 7.8 4.6 5.1 83 1.2 N 11 15 6 8 1021.2 1021.3 0.0
20/07:00am 6.0 1.9 4.3 89 0.7 N 15 17 8 9 1021.2 1021.3 0.0
20/06:30am 5.3 1.1 3.8 90 0.6 N 15 17 8 9 1021.4 1021.5 0.0
20/06:00am 5.2 1.0 4.0 92 0.5 N 15 17 8 9 1021.0 1021.1 0.0
20/05:30am 4.7 1.3 3.8 94 0.4 N 11 13 6 7 1020.9 1020.9 0.0
20/05:00am 5.2 1.5 4.2 93 0.4 NNW 13 13 7 7 1020.7 1020.7 0.0
20/04:30am 5.0 1.6 3.8 92 0.5 N 11 13 6 7 1020.7 1020.7 0.0
20/04:00am 5.5 1.8 4.2 91 0.6 NNW 13 15 7 8 1020.6 1020.6 0.0
20/03:30am 5.8 2.1 4.3 90 0.6 N 13 15 7 8 1020.6 1020.6 0.0
20/03:00am 5.9 2.2 4.5 91 0.6 NNW 13 15 7 8 1020.9 1020.9 0.0
20/02:30am 6.2 2.5 4.4 88 0.8 NNW 13 15 7 8 1021.2 1021.3 0.0
20/02:00am 6.2 2.9 4.4 88 0.8 N 11 13 6 7 1021.1 1021.2 0.0
20/01:30am 5.8 2.7 3.6 86 0.9 NNW 9 9 5 5 1021.6 1021.7 0.0
20/01:00am 6.6 3.3 4.3 85 1.0 NW 11 13 6 7 1021.7 1021.8 0.0
20/12:30am 6.9 3.9 3.9 81 1.3 NW 9 11 5 6 1021.8 1021.9 0.0
20/12:00am 8.1 5.2 4.5 78 1.6 NW 9 13 5 7 1022.0 1022.1 0.0
 
Date/Time
EST
Temp
°C
App
Temp
°C
Dew
Point
°C
Rel
Hum
%
Delta-T
°C
Wind Press
QNH
hPa
Press
MSL
hPa
Rain since
9am
mm
Dir  Spd
km/h
Gust
km/h
Spd
kts
Gust
kts
19/11:30pm 8.5 5.6 4.7 77 1.7 WNW 9 13 5 7 1022.3 1022.4 0.0
19/11:00pm 8.4 5.4 4.2 75 1.8 NW 9 11 5 6 1022.4 1022.5 0.0
19/10:30pm 8.3 5.3 3.9 74 1.9 W 9 11 5 6 1022.5 1022.6 0.0
19/10:00pm 8.8 6.1 3.8 71 2.2 W 7 9 4 5 1022.7 1022.8 0.0
19/09:30pm 9.9 7.4 4.7 70 2.3 WNW 7 9 4 5 1022.7 1022.8 0.0
19/09:00pm 10.0 7.9 5.8 75 1.9 SSE 6 6 3 3 1022.5 1022.6 0.0
19/08:30pm 9.4 7.7 5.9 79 1.6 SSE 4 6 2 3 1022.4 1022.5 0.0
19/08:00pm 9.8 7.7 5.8 76 1.8 SSE 6 7 3 4 1022.4 1022.5 0.0
19/07:30pm 9.5 7.1 5.3 75 1.9 SSE 7 11 4 6 1022.2 1022.3 0.0
19/07:00pm 9.7 6.5 5.3 74 2.0 S 11 15 6 8 1021.9 1022.0 0.0
19/06:30pm 9.9 6.6 4.5 69 2.4 SSE 11 15 6 8 1021.6 1021.7 0.0
19/06:00pm 10.6 6.3 5.2 69 2.5 SSE 17 20 9 11 1021.3 1021.4 0.0
19/05:30pm 11.9 7.8 4.4 60 3.4 S 15 20 8 11 1020.9 1020.9 0.0
19/05:00pm 12.0 5.8 4.5 60 3.4 S 26 37 14 20 1020.8 1020.8 0.0
19/04:30pm 13.2 6.6 2.1 47 4.8 WSW 26 33 14 18 1020.5 1020.5 0.0
19/04:00pm 13.2 6.0 3.0 50 4.5 WSW 30 41 16 22 1020.2 1020.2 0.0
19/03:30pm 12.9 5.2 3.3 52 4.3 WSW 33 43 18 23 1020.3 1020.3 0.0
19/03:00pm 14.3 8.3 3.5 48 4.9 WSW 24 39 13 21 1020.3 1020.3 0.0
19/02:30pm 12.4 8.5 5.3 62 3.3 SSW 15 24 8 13 1020.4 1020.4 0.0
19/02:00pm 14.0 9.2 5.4 56 4.0 SW 20 39 11 21 1020.1 1020.1 0.0
19/01:30pm 13.2 7.0 2.1 47 4.8 WSW 24 33 13 18 1019.9 1019.9 0.0
19/01:00pm 14.2 8.4 4.2 51 4.6 WSW 24 33 13 18 1020.0 1020.0 0.0
19/12:30pm 12.9 6.0 4.6 57 3.8 WSW 30 39 16 21 1020.0 1020.0 0.0
19/12:00pm 14.1 7.3 3.3 48 4.9 W 28 43 15 23 1019.8 1019.8 0.0
19/11:30am 13.8 7.0 3.3 49 4.7 WSW 28 43 15 23 1019.8 1019.8 0.0
19/11:00am 13.5 6.6 4.4 54 4.2 WSW 30 37 16 20 1019.8 1019.8 0.0
19/10:30am 12.3 5.5 3.3 54 4.0 SW 28 39 15 21 1019.7 1019.7 0.0
19/10:00am 12.8 5.2 3.7 54 4.1 WSW 33 41 18 22 1019.5 1019.5 0.0
19/09:37am 11.6 4.4 2.9 55 3.8 WSW 30 48 16 26 1019.4 1019.4 0.0
19/09:30am 11.4 4.0 3.9 60 3.4 WSW 32 43 17 23 1019.3 1019.3 0.0
19/09:00am 11.1 3.8 4.6 64 2.9 WSW 32 43 17 23 1019.3 1019.3 0.2
19/08:30am 10.6 4.5 4.9 68 2.6 W 26 37 14 20 1018.8 1018.8 0.2
19/08:00am 9.6 4.3 4.8 72 2.2 W 22 33 12 18 1018.3 1018.3 0.2
19/07:30am 8.5 3.5 4.7 77 1.7 WNW 20 30 11 16 1017.9 1017.9 0.2
19/07:00am 7.8 3.7 4.6 80 1.4 W 15 19 8 10 1017.5 1017.5 0.2
19/06:30am 8.2 2.8 4.4 77 1.7 W 22 33 12 18 1017.1 1017.1 0.2
19/06:00am 8.4 2.6 4.4 76 1.8 W 24 35 13 19 1016.3 1016.3 0.2
19/05:30am 8.5 3.0 4.1 74 1.9 W 22 30 12 16 1015.9 1015.9 0.2
19/05:00am 9.2 3.0 4.4 72 2.1 W 26 39 14 21 1015.6 1015.6 0.2
19/04:30am 9.3 4.4 4.9 74 2.0 W 20 30 11 16 1015.0 1015.1 0.2
19/04:00am 9.4 3.3 4.6 72 2.1 W 26 35 14 19 1014.6 1014.7 0.2
19/03:30am 9.5 4.8 5.1 74 2.0 W 19 32 10 17 1014.4 1014.5 0.2
19/03:00am 9.5 3.8 4.7 72 2.1 W 24 33 13 18 1014.0 1014.1 0.2
19/02:30am 9.5 4.2 4.9 73 2.1 W 22 30 12 16 1013.9 1014.0 0.2
19/02:00am 9.3 4.6 5.3 76 1.8 WNW 19 22 10 12 1013.6 1013.7 0.2
19/01:30am 9.9 5.0 5.3 73 2.1 NW 20 30 11 16 1013.5 1013.6 0.2
19/01:00am 10.3 3.9 5.1 70 2.4 W 28 37 15 20 1013.7 1013.8 0.2
19/12:30am 10.7 4.9 4.6 66 2.8 WNW 24 37 13 20 1012.7 1012.8 0.2
19/12:00am 11.0 6.2 4.5 64 2.9 NW 19 28 10 15 1012.8 1012.9 0.2
 
Date/Time
EST
Temp
°C
App
Temp
°C
Dew
Point
°C
Rel
Hum
%
Delta-T
°C
Wind Press
QNH
hPa
Press
MSL
hPa
Rain since
9am
mm
Dir  Spd
km/h
Gust
km/h
Spd
kts
Gust
kts
18/11:30pm 11.2 6.4 4.4 63 3.1 NW 19 28 10 15 1012.8 1012.9 0.2
18/11:00pm 11.2 6.6 5.5 68 2.6 NNW 19 24 10 13 1012.6 1012.7 0.2
18/10:30pm 11.7 6.8 5.1 64 3.0 NW 20 30 11 16 1012.6 1012.7 0.2
18/10:00pm 12.0 5.9 4.7 61 3.3 NW 26 39 14 21 1012.4 1012.5 0.2
18/09:30pm 12.5 6.2 5.7 63 3.2 NW 28 39 15 21 1012.7 1012.8 0.2
18/09:00pm 12.9 7.1 8.0 72 2.4 NW 28 39 15 21 1012.1 1012.2 0.2
18/08:30pm 13.0 6.5 8.9 76 2.1 NNW 33 48 18 26 1011.8 1011.9 0.2
18/08:21pm 12.7 5.4 8.8 77 2.0 NNW 37 57 20 31 1010.6 1010.7 0.2
18/08:00pm 13.0 4.8 8.3 73 2.3 NW 41 59 22 32 1011.4 1011.5 0.0
18/07:30pm 13.7 5.3 7.2 65 3.2 NW 41 65 22 35 1011.4 1011.5 0.0
18/07:00pm 14.8 6.8 7.6 62 3.6 WNW 39 59 21 32 1011.4 1011.5 0.0
18/06:30pm 16.9 7.4 4.9 45 5.7 NW 44 63 24 34 1010.1 1010.1 0.0
18/06:05pm 18.9 10.1 1.4 31 7.9 NW 37 57 20 31 1009.1 1009.1 0.0
18/06:00pm 19.3 10.4 0.8 29 8.3 NW 37 52 20 28 1009.1 1009.1 0.0
18/05:46pm 20.2 12.2 0.1 26 8.9 NW 32 50 17 27 1008.7 1008.7 0.0
18/05:30pm 20.3 12.1 0.2 26 9.0 WNW 33 46 18 25 1008.3 1008.3 0.0
18/05:00pm 21.1 13.8 -0.2 24 9.5 NNW 28 41 15 22 1008.1 1008.1 0.0
18/04:30pm 20.6 13.4 1.0 27 8.9 N 28 41 15 22 1007.8 1007.8 0.0
18/04:00pm 20.7 12.9 2.0 29 8.7 N 32 44 17 24 1007.9 1007.9 0.0
18/03:39pm 20.4 12.9 1.3 28 8.7 N 30 50 16 27 1008.1 1008.1 0.0
18/03:30pm 20.5 11.8 1.9 29 8.6 N 37 54 20 29 1008.3 1008.3 0.0

Latest Capital City Observations: Canberra | Sydney | Melbourne | Brisbane | Adelaide | Perth | Hobart | Darwin

Other Formats:

Comma delimited format used in spreadsheet applications
http://www.bom.gov.au/fwo/IDV60901/IDV60901.95866.axf

JavaScript Object Notation format (JSON) in row-major order
http://www.bom.gov.au/fwo/IDV60901/IDV60901.95866.json